Aérodrome :
LOGIN :

S'inscrire | Disclaimer

   EN    FR    IT 

 










Légende :    VFR   VFR Marginal   IFR   IFR Intensif   IFR Très Intensif
Visi : 
Plafond : 
>= 8 km
>= 3000ft
5 à 8 km
1000 à 3000 ft
1500m à 5 km
500 à 1000 ft
800 à 1500m
200 à 500 ft
< 800m
< 200 ft
Symboles :   Orages  Brouillard  Fortes neiges  Fortes précipitations  Vent > 20 kt
SIGMETs :   Divers  Orages  Givrage  Turbulence  Onde Orograph.  Cendres Volcan.






- Altitude de l'aérodrome : 1017 ft


LFSL - Brive Souillac

DERNIER METAR :
  • 091030Z AUTO 28013KT 230V320 9999 SCT020 BKN027 BKN037 09/07 Q1019 TEMPO 29018G28KT 4000 SHRA BKN010 SCT015CB

METARs EXPIRÉS :
  • 091000Z AUTO 28011KT 250V310 9999 FEW015 BKN024 BKN029 09/07 Q1019 TEMPO 29018G28KT 4000 SHRA BKN010 SCT015CB
  • 090930Z AUTO 28012G24KT 230V320 9999 OVC014/// ///TCU 09/07 Q1018 TEMPO 4000 SHRA BKN010 SCT015CB
  • 090900Z AUTO 26010KT 230V310 9999 BKN013/// OVC019/// ///TCU 08/07 Q1018 TEMPO 29018G28KT 4000 SHRA BKN010 SCT015CB
  • 090830Z AUTO 26010KT 210V290 9999 BKN015/// OVC023/// ///TCU 08/07 Q1018 TEMPO 29015G25KT 4000 RA BKN013 SCT020CB
  • 090800Z AUTO 27009G20KT 230V310 9999 BKN013/// BKN019/// OVC026/// ///TCU 08/07 Q1018 TEMPO 4000 RA BKN013 SCT020CB

TAF TAF LFSL
Valide du 09 à 09h jusqu'au 09 à 18h UTC


090800Z 0909/0918 28010KT 9999 BKN014
TEMPO 0909/0918 4000 SHRA BKN010 SCT015CB
PROB40
TEMPO 0909/0918 29018G28KT



MET'MAP, la Météo Aéronautique d'un coup d'oeil ! - Copyright ORBIFLY Décembre 2007 - Disclaimer

ORBIFLY MET'MAP TEAM :

Programmation & Développement : Alexandra Zaïnal
Sur une idée originale de : Baudouin d'Aumeries
Assistance à la programmation : Marc-Olivier Méhu
Soutien technique & logistique : Manuel Goepfert

Contact : metmap@orbifly.com




SOURCES & CREDITS :

   NOAA